Latest Weather Observations for Williamson

IDQ60801

Issued at 8:12 pm EST Tuesday 19 June 2018 (issued every 10 minutes, with the page automatically refreshed every 10 minutes)

About weather observations | Map of weather stations | Latest weather observations for QLD | Other Formats
Station Details ID: 033195 Name: WILLIAMSON Lat: -22.47 Lon: 150.18 Height: 27.6 m
Data from the previous 72 hours. | See also: Recent months at Williamson
Date/Time
EST
Temp
°C
App
Temp
°C
Dew
Point
°C
Rel
Hum
%
Delta-T
°C
Wind Press
QNH
hPa
Press
MSL
hPa
Rain since
9am
mm
Dir  Spd
km/h
Gust
km/h
Spd
kts
Gust
kts
19/08:00pm 7.3 5.2 -0.9 56 3.1 CALM 0 0 0 0 1021.8 1021.7 0.0
19/07:30pm 8.6 6.5 -0.9 51 3.7 CALM 0 0 0 0 1021.6 1021.5 0.0
19/07:00pm 10.5 8.3 -1.2 44 4.6 CALM 0 0 0 0 1021.4 1021.3 0.0
19/06:30pm 13.7 9.8 -1.5 35 6.1 SW 9 11 5 6 1020.9 1020.8 0.0
19/06:00pm 15.7 11.8 -1.8 30 7.1 SW 9 13 5 7 1020.4 1020.3 0.0
19/05:30pm 17.6 13.6 -2.1 26 8.2 SSW 9 15 5 8 1020.2 1020.1 0.0
19/05:00pm 19.5 14.7 -2.2 23 9.1 SSW 13 19 7 10 1020.0 1019.9 0.0
19/04:30pm 20.4 14.3 -2.6 21 9.7 S 20 28 11 15 1019.6 1019.5 0.0
19/04:00pm 21.0 14.5 -2.1 21 9.8 S 22 28 12 15 1019.3 1019.2 0.0
19/03:30pm 21.1 15.1 -2.7 20 10.1 SW 19 30 10 16 1019.3 1019.2 0.0
19/03:00pm 21.1 15.0 -2.0 21 9.9 SSW 20 32 11 17 1019.4 1019.3 0.0
19/02:30pm 21.3 15.5 -1.3 22 9.8 SW 19 28 10 15 1019.4 1019.3 0.0
19/02:00pm 20.6 16.4 -0.7 24 9.3 S 11 19 6 10 1019.7 1019.6 0.0
19/01:30pm 20.8 16.0 0.1 25 9.2 SSW 15 26 8 14 1019.9 1019.8 0.0
19/01:00pm 20.3 15.4 -0.3 25 9.0 SW 15 22 8 12 1020.2 1020.1 0.0
19/12:30pm 19.6 14.3 -0.4 26 8.7 S 17 28 9 15 1020.9 1020.8 0.0
19/12:00pm 19.3 13.8 0.4 28 8.3 SSW 19 28 10 15 1021.4 1021.3 0.0
19/11:30am 18.2 12.5 0.8 31 7.7 S 20 33 11 18 1022.0 1021.9 0.0
19/11:00am 17.0 10.9 0.2 32 7.2 S 22 32 12 17 1022.5 1022.4 0.0
19/10:30am 16.9 10.6 1.4 35 6.9 SSW 24 33 13 18 1023.0 1022.9 0.0
19/10:00am 15.6 9.7 1.7 39 6.1 SSW 22 33 12 18 1023.2 1023.1 0.0
19/09:30am 14.8 8.9 1.7 41 5.7 S 22 35 12 19 1023.3 1023.2 0.0
19/09:00am 13.4 8.7 1.1 43 5.2 SSW 15 20 8 11 1023.4 1023.3 0.0
19/08:30am 11.8 7.9 0.9 47 4.6 S 11 20 6 11 1023.6 1023.5 0.0
19/08:00am 7.3 5.0 0.7 63 2.6 WSW 2 6 1 3 1023.5 1023.4 0.0
19/07:57am 6.7 4.8 0.8 66 2.3 CALM 0 6 0 3 1023.4 1023.3 0.0
19/07:30am 1.7 -0.4 -0.7 84 0.9 CALM 0 0 0 0 1023.3 1023.2 0.0
19/07:00am -0.5 -2.7 -1.9 90 0.5 CALM 0 0 0 0 1023.1 1023.0 0.0
19/06:30am -0.6 -2.9 -2.0 90 0.5 CALM 0 0 0 0 1022.8 1022.7 0.0
19/06:00am -0.5 -2.8 -2.1 89 0.5 CALM 0 0 0 0 1022.6 1022.5 0.0
19/05:30am -0.3 -2.5 -1.9 89 0.5 CALM 0 0 0 0 1022.3 1022.2 0.0
19/05:00am -0.1 -2.3 -1.8 88 0.6 CALM 0 0 0 0 1022.3 1022.2 0.0
19/04:30am -0.2 -2.5 -2.1 87 0.6 CALM 0 0 0 0 1022.3 1022.2 0.0
19/04:00am 0.0 -2.2 -1.9 87 0.7 CALM 0 0 0 0 1022.3 1022.2 0.0
19/03:30am 0.1 -2.2 -2.0 86 0.7 CALM 0 0 0 0 1022.1 1022.0 0.0
19/03:00am 0.2 -2.1 -2.0 85 0.8 CALM 0 0 0 0 1022.1 1022.0 0.0
19/02:30am 0.6 -1.6 -1.8 84 0.9 CALM 0 0 0 0 1022.2 1022.1 0.0
19/02:00am 0.6 -1.6 -1.8 84 0.9 CALM 0 0 0 0 1022.3 1022.2 0.0
19/01:30am 1.1 -1.1 -1.5 83 0.9 CALM 0 0 0 0 1022.3 1022.2 0.0
19/01:00am 1.2 -1.0 -1.7 81 1.0 CALM 0 0 0 0 1022.4 1022.3 0.0
19/12:30am 1.4 -0.8 -1.7 80 1.1 CALM 0 0 0 0 1022.4 1022.3 0.0
19/12:00am 1.6 -0.6 -1.8 78 1.2 CALM 0 0 0 0 1022.4 1022.3 0.0
 
Date/Time
EST
Temp
°C
App
Temp
°C
Dew
Point
°C
Rel
Hum
%
Delta-T
°C
Wind Press
QNH
hPa
Press
MSL
hPa
Rain since
9am
mm
Dir  Spd
km/h
Gust
km/h
Spd
kts
Gust
kts
18/11:30pm 1.9 -0.3 -1.9 76 1.3 CALM 0 0 0 0 1022.3 1022.2 0.0
18/11:00pm 2.4 0.2 -1.2 77 1.3 CALM 0 0 0 0 1022.3 1022.2 0.0
18/10:30pm 2.5 0.3 -1.8 73 1.5 CALM 0 0 0 0 1022.3 1022.2 0.0
18/10:00pm 3.2 1.0 -1.3 72 1.6 CALM 0 0 0 0 1022.3 1022.2 0.0
18/09:30pm 3.8 1.6 -1.5 68 1.9 CALM 0 0 0 0 1022.2 1022.1 0.0
18/09:00pm 4.4 2.2 -1.6 65 2.2 CALM 0 2 0 1 1022.0 1021.9 0.0
18/08:30pm 5.0 2.8 -1.7 62 2.4 CALM 0 0 0 0 1021.8 1021.7 0.0
18/08:00pm 5.9 3.7 -1.7 58 2.8 CALM 0 0 0 0 1021.6 1021.5 0.0
18/07:30pm 6.8 4.5 -2.1 53 3.3 CALM 0 0 0 0 1021.3 1021.2 0.0
18/07:00pm 8.0 5.7 -2.6 47 3.9 CALM 0 0 0 0 1021.1 1021.0 0.0
18/06:30pm 10.1 7.7 -2.9 40 4.9 CALM 0 0 0 0 1020.8 1020.7 0.0
18/06:00pm 12.7 9.4 -4.0 31 6.3 S 4 6 2 3 1020.3 1020.2 0.0
18/05:30pm 16.3 12.4 -4.3 24 8.0 S 7 13 4 7 1019.9 1019.8 0.0
18/05:00pm 18.1 12.7 -4.5 21 8.9 S 15 24 8 13 1019.5 1019.4 0.0
18/04:30pm 19.1 13.3 -5.0 19 9.5 SSW 17 24 9 13 1019.3 1019.2 0.0
18/04:00pm 19.5 12.7 -4.7 19 9.7 SSW 22 30 12 16 1019.0 1018.9 0.0
18/03:30pm 19.9 13.2 -4.4 19 9.8 SSW 22 32 12 17 1018.9 1018.8 0.0
18/03:00pm 19.9 13.1 -5.1 18 9.9 SSW 22 35 12 19 1019.0 1018.9 0.0
18/02:30pm 19.8 13.5 -3.8 20 9.6 SW 20 32 11 17 1019.4 1019.3 0.0
18/02:00pm 19.7 12.4 -3.2 21 9.4 SW 26 37 14 20 1019.8 1019.7 0.0
18/01:30pm 19.1 13.0 -2.5 23 9.0 SSW 20 32 11 17 1019.9 1019.8 0.0
18/01:00pm 18.9 11.5 -3.3 22 9.1 SSW 26 41 14 22 1020.4 1020.3 0.0
18/12:30pm 18.3 12.3 -3.2 23 8.8 S 19 33 10 18 1020.7 1020.6 0.0
18/12:00pm 18.3 12.3 -3.2 23 8.7 S 19 30 10 16 1021.6 1021.5 0.0
18/11:30am 18.6 12.1 -2.3 24 8.7 SSW 22 32 12 17 1021.8 1021.7 0.0
18/11:00am 17.1 10.6 -2.5 26 8.0 S 22 32 12 17 1022.1 1022.0 0.0
18/10:30am 17.2 10.3 -2.4 26 8.0 SSW 24 32 13 17 1022.4 1022.3 0.0
18/10:00am 16.1 10.1 -1.9 29 7.3 S 20 26 11 14 1022.7 1022.6 0.0
18/09:30am 15.3 6.9 -2.2 30 7.1 S 32 41 17 22 1022.8 1022.7 0.0
18/09:00am 14.6 6.6 -2.3 31 6.7 S 30 48 16 26 1022.7 1022.6 0.0
18/08:55am 14.4 6.8 -2.5 31 6.7 S 28 48 15 26 1022.8 1022.7 0.0
18/08:30am 12.7 7.3 -1.6 37 5.7 S 17 28 9 15 1023.1 1023.0 0.0
18/08:00am 12.0 7.2 -2.2 37 5.5 S 13 24 7 13 1022.9 1022.8 0.0
18/07:30am 12.3 6.4 -2.3 36 5.7 S 19 30 10 16 1022.7 1022.6 0.0
18/07:00am 11.9 7.3 -1.3 40 5.2 S 13 26 7 14 1022.3 1022.2 0.0
18/06:30am 11.3 7.6 0.1 46 4.6 S 9 13 5 7 1022.0 1021.9 0.0
18/06:00am 12.2 8.1 -0.3 42 5.1 S 11 17 6 9 1021.8 1021.7 0.0
18/05:30am 12.7 8.2 -0.2 41 5.3 S 13 20 7 11 1021.2 1021.1 0.0
18/05:00am 13.2 8.3 -0.4 39 5.6 S 15 20 8 11 1021.0 1020.9 0.0
18/04:30am 13.4 9.0 0.4 41 5.5 S 13 20 7 11 1021.1 1021.0 0.0
18/04:00am 13.0 9.2 2.0 47 4.7 S 11 17 6 9 1020.8 1020.7 0.0
18/03:30am 10.2 7.7 4.6 68 2.5 S 7 11 4 6 1020.8 1020.7 0.0
18/03:00am 8.6 7.7 5.9 83 1.2 CALM 0 0 0 0 1020.7 1020.6 0.0
18/02:30am 9.3 7.2 5.9 79 1.6 S 6 7 3 4 1020.7 1020.6 0.0
18/02:00am 8.9 6.8 6.7 86 1.0 S 7 7 4 4 1020.7 1020.6 0.0
18/01:30am 8.0 7.2 6.3 89 0.8 CALM 0 0 0 0 1020.8 1020.7 0.0
18/01:00am 7.6 6.6 5.6 87 0.9 CALM 0 0 0 0 1020.9 1020.8 0.0
18/12:30am 8.3 7.4 5.9 85 1.1 CALM 0 0 0 0 1021.1 1021.0 0.0
18/12:00am 8.9 8.0 6.2 83 1.2 CALM 0 0 0 0 1020.9 1020.8 0.0
 
Date/Time
EST
Temp
°C
App
Temp
°C
Dew
Point
°C
Rel
Hum
%
Delta-T
°C
Wind Press
QNH
hPa
Press
MSL
hPa
Rain since
9am
mm
Dir  Spd
km/h
Gust
km/h
Spd
kts
Gust
kts
17/11:30pm 9.9 9.2 7.0 82 1.4 CALM 0 0 0 0 1021.2 1021.1 0.0
17/11:00pm 10.2 9.5 6.9 80 1.6 CALM 0 0 0 0 1021.6 1021.5 0.0
17/10:30pm 10.6 9.8 6.7 77 1.8 CALM 0 0 0 0 1021.6 1021.5 0.0
17/10:00pm 10.9 10.1 6.6 75 2.0 CALM 0 0 0 0 1021.4 1021.3 0.0
17/09:30pm 11.6 10.9 6.9 73 2.2 CALM 0 0 0 0 1021.4 1021.3 0.0
17/09:00pm 11.9 11.2 6.8 71 2.4 CALM 0 0 0 0 1021.3 1021.2 0.0
17/08:30pm 12.5 11.8 6.8 68 2.7 CALM 0 0 0 0 1021.1 1021.0 0.0
17/08:00pm 13.2 12.0 7.9 70 2.6 SSE 4 6 2 3 1021.0 1020.9 0.0
17/07:30pm 13.5 12.3 6.4 62 3.4 S 2 6 1 3 1020.7 1020.6 0.0
17/07:00pm 14.0 13.1 6.1 59 3.8 CALM 0 0 0 0 1020.6 1020.5 0.0
17/06:30pm 14.8 13.8 5.6 54 4.4 CALM 0 0 0 0 1020.2 1020.1 0.0
17/06:00pm 15.9 14.8 4.9 48 5.2 CALM 0 0 0 0 1020.0 1019.9 0.0
17/05:30pm 17.9 16.3 4.5 41 6.4 SSE 2 7 1 4 1019.7 1019.6 0.0
17/05:00pm 19.6 16.8 3.3 34 7.6 SSW 7 13 4 7 1019.4 1019.3 0.0
17/04:30pm 20.1 16.9 3.3 33 7.9 SSW 9 13 5 7 1018.9 1018.8 0.0
17/04:00pm 20.6 17.1 3.3 32 8.2 S 11 15 6 8 1018.7 1018.6 0.0
17/03:30pm 21.2 17.3 3.4 31 8.5 SSW 13 17 7 9 1018.6 1018.5 0.0
17/03:00pm 21.6 18.1 3.3 30 8.7 SW 11 17 6 9 1018.6 1018.5 0.0
17/02:30pm 21.6 17.6 2.8 29 8.9 SSW 13 17 7 9 1018.8 1018.7 0.0
17/02:00pm 21.8 18.3 3.5 30 8.8 SSW 11 19 6 10 1018.5 1018.4 0.0
17/01:30pm 21.4 17.4 2.6 29 8.8 S 13 19 7 10 1018.8 1018.7 0.0
17/01:00pm 21.6 17.3 3.3 30 8.7 S 15 22 8 12 1019.3 1019.2 0.0
17/12:30pm 21.5 16.3 2.7 29 8.9 SSW 19 26 10 14 1019.9 1019.8 0.0
17/12:00pm 21.5 17.2 3.2 30 8.7 S 15 24 8 13 1020.5 1020.4 0.0
17/11:30am 21.0 15.9 3.2 31 8.4 SSW 19 26 10 14 1021.0 1020.9 0.0
17/11:00am 20.4 15.1 3.2 32 8.1 S 20 30 11 16 1021.3 1021.2 0.0
17/10:30am 19.7 13.8 3.8 35 7.6 S 24 37 13 20 1021.4 1021.3 0.0
17/10:00am 19.4 14.2 3.6 35 7.4 S 20 30 11 16 1021.6 1021.5 0.0
17/09:30am 18.7 13.7 4.8 40 6.7 S 20 32 11 17 1021.5 1021.4 0.0
17/09:00am 18.2 13.8 7.3 49 5.5 S 20 28 11 15 1021.4 1021.3 0.0
17/08:30am 16.5 13.5 10.6 68 3.1 S 17 22 9 12 1021.3 1021.2 0.0
17/08:00am 15.7 13.9 12.1 79 2.0 S 13 19 7 10 1021.1 1021.0 0.0
17/07:30am 15.5 15.3 14.7 95 0.5 SSW 9 11 5 6 1020.8 1020.7 0.0
17/07:00am 15.3 15.2 15.0 98 0.2 S 9 13 5 7 1020.4 1020.3 0.0
17/06:30am 15.6 15.2 15.3 98 0.2 S 11 17 6 9 1020.2 1020.1 0.0
17/06:00am 16.2 16.8 15.9 98 0.2 S 7 11 4 6 1019.9 1019.8 0.0
17/05:30am 15.1 15.9 14.8 98 0.2 SSE 4 6 2 3 1019.5 1019.4 0.0
17/05:00am 15.4 17.1 15.1 98 0.2 CALM 0 0 0 0 1019.4 1019.3 0.0
17/04:30am 15.3 16.9 15.0 98 0.2 CALM 0 0 0 0 1019.4 1019.3 0.0
17/04:00am 15.6 17.3 15.3 98 0.2 CALM 0 0 0 0 1019.2 1019.1 0.0
17/03:30am 15.7 17.5 15.4 98 0.2 CALM 0 0 0 0 1019.2 1019.1 0.0
17/03:00am 15.8 17.6 15.5 98 0.2 CALM 0 0 0 0 1019.2 1019.1 0.0
17/02:30am 16.1 18.0 15.8 98 0.2 CALM 0 0 0 0 1019.2 1019.1 0.0
17/02:00am 16.4 18.4 16.1 98 0.2 CALM 0 0 0 0 1019.6 1019.5 0.0
17/01:30am 17.0 19.3 16.7 98 0.2 CALM 0 0 0 0 1020.0 1019.9 0.0
17/01:00am 17.5 18.8 17.2 98 0.2 SSE 6 7 3 4 1020.2 1020.1 0.0
17/12:30am 17.0 18.9 16.7 98 0.2 SE 2 7 1 4 1020.4 1020.3 0.0
17/12:00am 15.6 17.3 15.3 98 0.2 CALM 0 0 0 0 1020.4 1020.3 0.0
 
Date/Time
EST
Temp
°C
App
Temp
°C
Dew
Point
°C
Rel
Hum
%
Delta-T
°C
Wind Press
QNH
hPa
Press
MSL
hPa
Rain since
9am
mm
Dir  Spd
km/h
Gust
km/h
Spd
kts
Gust
kts
16/11:30pm 15.9 17.0 15.6 98 0.2 SSE 4 6 2 3 1020.5 1020.4 0.0
16/11:00pm 16.2 18.0 15.6 96 0.3 CALM 0 0 0 0 1020.7 1020.6 0.0
16/10:30pm 16.5 18.5 16.0 97 0.3 CALM 0 0 0 0 1020.6 1020.5 0.0
16/10:00pm 16.8 18.9 16.3 97 0.3 CALM 0 0 0 0 1020.6 1020.5 0.0
16/09:30pm 17.2 19.4 16.6 96 0.4 CALM 0 0 0 0 1020.9 1020.8 0.0
16/09:00pm 17.4 19.6 16.6 95 0.5 CALM 0 6 0 3 1020.7 1020.6 0.0
16/08:30pm 18.0 19.3 17.0 94 0.6 NE 6 7 3 4 1020.8 1020.7 0.0

Other Formats:

Comma delimited format used in spreadsheet applications
http://www.bom.gov.au/fwo/IDQ60801/IDQ60801.95370.axf

JavaScript Object Notation format (JSON) in row-major order
http://www.bom.gov.au/fwo/IDQ60801/IDQ60801.95370.json